createdAt,value
2018-07-09T00:00:25.457Z,16.20
2018-07-09T00:00:58.493Z,16.20
2018-07-09T00:01:31.523Z,16.30
2018-07-09T00:02:04.651Z,16.20
2018-07-09T00:02:37.695Z,16.30
2018-07-09T00:03:12.671Z,16.20
2018-07-09T00:03:45.753Z,16.20
2018-07-09T00:04:18.816Z,16.20
2018-07-09T00:04:51.997Z,16.20
2018-07-09T00:05:25.049Z,16.10
2018-07-09T00:05:58.076Z,16.10
2018-07-09T00:06:31.127Z,16.20
2018-07-09T00:07:04.426Z,16.00
2018-07-09T00:07:37.442Z,16.20
2018-07-09T00:08:11.510Z,16.10
2018-07-09T00:08:44.555Z,16.00
2018-07-09T00:09:17.603Z,16.00
2018-07-09T00:09:50.663Z,16.10
2018-07-09T00:10:41.041Z,16.00
2018-07-09T00:11:14.095Z,16.00
2018-07-09T00:11:47.159Z,16.00
2018-07-09T00:12:20.207Z,16.00
2018-07-09T00:12:53.283Z,16.10
2018-07-09T00:13:26.985Z,16.10
2018-07-09T00:14:00.028Z,16.00
2018-07-09T00:14:33.079Z,16.00
2018-07-09T00:15:06.187Z,16.00
2018-07-09T00:15:39.201Z,16.00
2018-07-09T00:16:12.333Z,16.00
2018-07-09T00:16:45.399Z,16.00
2018-07-09T00:17:18.457Z,16.00
2018-07-09T00:17:51.537Z,15.90
2018-07-09T00:18:24.757Z,15.90
2018-07-09T00:18:57.839Z,16.00
2018-07-09T00:19:30.911Z,15.90
2018-07-09T00:20:03.976Z,15.90
2018-07-09T00:20:37.012Z,15.90
2018-07-09T00:21:10.109Z,15.90
2018-07-09T00:21:43.227Z,15.90
2018-07-09T00:22:16.290Z,15.90
2018-07-09T00:22:49.349Z,15.80
2018-07-09T00:23:22.463Z,15.90
2018-07-09T00:23:55.527Z,15.90
2018-07-09T00:24:28.599Z,15.80
2018-07-09T00:25:01.700Z,15.80
2018-07-09T00:25:34.815Z,15.70
2018-07-09T00:26:07.822Z,15.80
2018-07-09T00:26:40.850Z,15.80
2018-07-09T00:27:13.943Z,15.90
2018-07-09T00:27:47.045Z,15.80
2018-07-09T00:28:20.753Z,15.80
2018-07-09T00:28:53.823Z,15.80
2018-07-09T00:29:26.935Z,15.70
2018-07-09T00:29:59.967Z,15.80
2018-07-09T00:30:33.045Z,15.70
2018-07-09T00:31:06.187Z,15.70
2018-07-09T00:31:39.251Z,15.70
2018-07-09T00:32:12.321Z,15.60
2018-07-09T00:32:45.425Z,15.70
2018-07-09T00:33:19.029Z,15.80
2018-07-09T00:33:52.082Z,15.70
2018-07-09T00:34:25.127Z,15.70
2018-07-09T00:34:58.225Z,15.70
2018-07-09T00:35:31.298Z,15.60
2018-07-09T00:36:04.341Z,15.60
2018-07-09T00:36:37.452Z,15.60
2018-07-09T00:37:10.503Z,15.60
2018-07-09T00:37:43.627Z,15.60
2018-07-09T00:38:17.125Z,15.60
2018-07-09T00:38:50.171Z,15.60
2018-07-09T00:39:23.351Z,15.60
2018-07-09T00:39:56.536Z,15.70
2018-07-09T00:40:29.715Z,15.60
2018-07-09T00:41:02.993Z,15.60
2018-07-09T00:41:36.599Z,15.60
2018-07-09T00:42:09.713Z,15.50
2018-07-09T00:42:42.843Z,15.60
2018-07-09T00:43:16.189Z,15.50
2018-07-09T00:43:49.275Z,15.60
2018-07-09T00:44:22.339Z,15.60
2018-07-09T00:44:56.359Z,15.50
2018-07-09T00:45:29.597Z,15.60
2018-07-09T00:46:03.526Z,15.50
2018-07-09T00:46:36.591Z,15.60
2018-07-09T00:47:10.159Z,15.50
2018-07-09T00:47:43.305Z,15.50
2018-07-09T00:48:16.911Z,15.50
2018-07-09T00:48:50.023Z,15.50
2018-07-09T00:49:23.098Z,15.60
2018-07-09T00:49:56.366Z,15.50
2018-07-09T00:50:29.708Z,15.60
2018-07-09T00:51:02.828Z,15.60
2018-07-09T00:51:35.887Z,15.50
2018-07-09T00:52:08.968Z,15.40
2018-07-09T00:52:42.307Z,15.50
2018-07-09T00:53:15.427Z,15.50
2018-07-09T00:53:48.532Z,15.60
2018-07-09T00:54:21.595Z,15.50
2018-07-09T00:54:54.729Z,15.50
2018-07-09T00:55:27.859Z,15.40
2018-07-09T00:56:00.949Z,15.50
2018-07-09T00:56:34.025Z,15.50
2018-07-09T00:57:07.113Z,15.40
2018-07-09T00:57:40.339Z,15.40
2018-07-09T00:58:13.414Z,15.50
2018-07-09T00:58:46.419Z,15.40
2018-07-09T00:59:19.505Z,15.40
2018-07-09T00:59:52.791Z,15.40
2018-07-09T01:00:25.913Z,15.40
2018-07-09T01:00:58.993Z,15.40
2018-07-09T01:01:32.383Z,15.40
2018-07-09T01:02:05.681Z,15.40
2018-07-09T01:02:38.771Z,15.30
2018-07-09T01:03:11.811Z,15.40
2018-07-09T01:03:44.869Z,15.40
2018-07-09T01:04:17.893Z,15.40
2018-07-09T01:04:50.933Z,15.30
2018-07-09T01:05:23.982Z,15.40
2018-07-09T01:05:57.071Z,15.40
2018-07-09T01:06:30.099Z,15.50
2018-07-09T01:07:03.146Z,15.40
2018-07-09T01:07:36.689Z,15.50
2018-07-09T01:08:09.738Z,15.40
2018-07-09T01:08:42.891Z,15.40
2018-07-09T01:09:16.295Z,15.30
2018-07-09T01:09:49.342Z,15.40
2018-07-09T01:10:22.415Z,15.40
2018-07-09T01:11:13.031Z,15.40
2018-07-09T01:11:47.258Z,15.30
2018-07-09T01:12:20.321Z,15.40
2018-07-09T01:12:53.355Z,15.30
2018-07-09T01:13:46.277Z,15.40
2018-07-09T01:14:19.385Z,15.40
2018-07-09T01:14:52.455Z,15.30
2018-07-09T01:15:25.465Z,15.30
2018-07-09T01:15:58.583Z,15.30
2018-07-09T01:16:31.597Z,15.40
2018-07-09T01:17:04.937Z,15.30
2018-07-09T01:17:37.995Z,15.30
2018-07-09T01:18:11.055Z,15.30
2018-07-09T01:18:44.095Z,15.30
2018-07-09T01:19:17.157Z,15.30
2018-07-09T01:19:50.189Z,15.20
2018-07-09T01:20:23.331Z,15.30
2018-07-09T01:20:56.440Z,15.20
2018-07-09T01:21:29.513Z,15.20
2018-07-09T01:22:03.183Z,15.20
2018-07-09T01:22:36.277Z,15.30
2018-07-09T01:23:09.368Z,15.30
2018-07-09T01:23:42.445Z,15.20
2018-07-09T01:24:15.483Z,15.20
2018-07-09T01:24:48.667Z,15.20
2018-07-09T01:25:21.725Z,15.20
2018-07-09T01:25:54.895Z,15.20
2018-07-09T01:26:28.078Z,15.20
2018-07-09T01:27:01.397Z,15.20
2018-07-09T01:27:34.519Z,15.20
2018-07-09T01:28:07.571Z,15.20
2018-07-09T01:28:41.456Z,15.20
2018-07-09T01:29:14.535Z,15.10
2018-07-09T01:29:47.633Z,15.10
2018-07-09T01:30:20.697Z,15.10
2018-07-09T01:30:53.763Z,15.20
2018-07-09T01:31:26.883Z,15.10
2018-07-09T01:31:59.891Z,15.20
2018-07-09T01:32:33.228Z,15.10
2018-07-09T01:33:06.292Z,15.10
2018-07-09T01:33:39.432Z,15.10
2018-07-09T01:34:12.467Z,15.10
2018-07-09T01:34:45.513Z,15.10
2018-07-09T01:35:18.527Z,15.10
2018-07-09T01:35:51.553Z,15.10
2018-07-09T01:36:24.600Z,15.10
2018-07-09T01:36:57.651Z,15.10
2018-07-09T01:37:30.693Z,15.10
2018-07-09T01:38:03.985Z,15.10
2018-07-09T01:38:37.006Z,15.10
2018-07-09T01:39:10.063Z,15.10
2018-07-09T01:39:43.141Z,15.10
2018-07-09T01:40:16.219Z,15.10
2018-07-09T01:40:49.279Z,15.00
2018-07-09T01:41:22.361Z,15.10
2018-07-09T01:41:55.413Z,15.10
2018-07-09T01:42:28.437Z,15.10
2018-07-09T01:43:01.441Z,15.10
2018-07-09T01:43:34.515Z,15.00
2018-07-09T01:44:07.583Z,15.00
2018-07-09T01:44:40.641Z,15.00
2018-07-09T01:45:13.669Z,15.00
2018-07-09T01:45:46.651Z,15.00
2018-07-09T01:46:19.677Z,15.00
2018-07-09T01:46:52.825Z,15.00
2018-07-09T01:47:25.857Z,15.10
2018-07-09T01:47:58.893Z,15.00
2018-07-09T01:48:31.961Z,15.00
2018-07-09T01:49:05.023Z,15.00
2018-07-09T01:49:38.041Z,15.10
2018-07-09T01:50:11.071Z,15.00
2018-07-09T01:50:44.098Z,14.90
2018-07-09T01:51:17.106Z,15.10
2018-07-09T01:51:50.154Z,15.10
2018-07-09T01:52:23.254Z,15.10
2018-07-09T01:52:56.309Z,15.10
2018-07-09T01:53:29.535Z,15.30
2018-07-09T01:54:02.644Z,15.20
2018-07-09T01:54:35.693Z,15.20
2018-07-09T01:55:08.802Z,15.20
2018-07-09T01:55:41.829Z,15.30
2018-07-09T01:56:14.857Z,15.40
2018-07-09T01:56:47.917Z,15.30
2018-07-09T01:57:20.933Z,15.30
2018-07-09T01:57:53.933Z,15.30
2018-07-09T01:58:26.973Z,15.30
2018-07-09T01:58:59.961Z,15.40
2018-07-09T01:59:32.965Z,15.30
2018-07-09T02:00:06.045Z,15.40
2018-07-09T02:00:39.033Z,15.30
2018-07-09T02:01:12.067Z,15.30
2018-07-09T02:01:45.119Z,15.30
2018-07-09T02:02:18.145Z,15.30
2018-07-09T02:02:51.157Z,15.30
2018-07-09T02:03:24.219Z,15.20
2018-07-09T02:03:57.240Z,15.20
2018-07-09T02:04:30.275Z,15.30
2018-07-09T02:05:03.340Z,15.20
2018-07-09T02:05:36.571Z,15.30
2018-07-09T02:06:09.595Z,15.10
2018-07-09T02:06:42.665Z,15.20
2018-07-09T02:07:15.666Z,15.10
2018-07-09T02:07:48.763Z,15.20
2018-07-09T02:08:21.787Z,15.10
2018-07-09T02:08:54.903Z,15.10
2018-07-09T02:09:27.933Z,15.10
2018-07-09T02:10:00.953Z,15.00
2018-07-09T02:10:33.969Z,15.10
2018-07-09T02:11:06.993Z,15.10
2018-07-09T02:11:40.071Z,15.10
2018-07-09T02:12:13.116Z,15.00
2018-07-09T02:12:46.157Z,15.10
2018-07-09T02:13:19.197Z,15.00
2018-07-09T02:13:52.365Z,15.10
2018-07-09T02:14:25.407Z,15.00
2018-07-09T02:14:58.423Z,15.00
2018-07-09T02:15:31.473Z,15.10
2018-07-09T02:16:04.519Z,15.00
2018-07-09T02:16:37.613Z,15.20
2018-07-09T02:17:10.639Z,15.10
2018-07-09T02:17:43.684Z,15.10
2018-07-09T02:18:16.757Z,15.20
2018-07-09T02:18:49.779Z,15.10
2018-07-09T02:19:22.795Z,15.20
2018-07-09T02:21:25.393Z,15.20
2018-07-09T02:21:58.446Z,15.10
2018-07-09T02:22:31.502Z,15.10
2018-07-09T02:23:04.781Z,15.00
2018-07-09T02:23:37.855Z,15.00
2018-07-09T02:24:10.908Z,15.00
2018-07-09T02:24:43.947Z,15.00
2018-07-09T02:25:17.011Z,15.00
2018-07-09T02:25:50.053Z,14.90
2018-07-09T02:26:23.311Z,15.00
2018-07-09T02:26:56.346Z,15.00
2018-07-09T02:27:29.477Z,14.90
2018-07-09T02:28:02.549Z,14.90
2018-07-09T02:28:35.589Z,15.00
2018-07-09T02:29:08.643Z,14.90
2018-07-09T02:29:41.673Z,14.80
2018-07-09T02:30:14.738Z,15.00
2018-07-09T02:30:48.114Z,14.90
2018-07-09T02:31:21.252Z,14.90
2018-07-09T02:31:54.289Z,14.90
2018-07-09T02:32:27.371Z,14.90
2018-07-09T02:33:00.418Z,14.90
2018-07-09T02:33:33.463Z,14.90
2018-07-09T02:34:06.515Z,14.80
2018-07-09T02:34:39.551Z,14.80
2018-07-09T02:35:12.558Z,14.80
2018-07-09T02:35:45.556Z,14.90
2018-07-09T02:36:18.624Z,14.90
2018-07-09T02:36:51.750Z,14.80
2018-07-09T02:37:24.829Z,14.90
2018-07-09T02:37:57.901Z,14.80
2018-07-09T02:38:30.960Z,14.80
2018-07-09T02:39:05.366Z,14.80
2018-07-09T02:39:38.388Z,14.90
2018-07-09T02:40:11.484Z,14.90
2018-07-09T02:40:44.561Z,14.80
2018-07-09T02:41:17.612Z,14.80
2018-07-09T02:41:50.672Z,14.90
2018-07-09T02:42:23.726Z,14.80
2018-07-09T02:42:56.724Z,14.80
2018-07-09T02:43:29.797Z,14.80
2018-07-09T02:44:02.889Z,14.80
2018-07-09T02:44:35.913Z,14.80
2018-07-09T02:45:08.972Z,14.80
2018-07-09T02:45:42.054Z,14.80
2018-07-09T02:46:15.054Z,14.80
2018-07-09T02:46:48.072Z,14.80
2018-07-09T02:47:21.391Z,14.80
2018-07-09T02:47:54.418Z,14.70
2018-07-09T02:48:27.448Z,14.70
2018-07-09T02:49:00.494Z,14.80
2018-07-09T02:49:33.553Z,14.80
2018-07-09T02:50:06.592Z,14.70
2018-07-09T02:50:39.600Z,14.70
2018-07-09T02:51:12.706Z,14.80
2018-07-09T02:51:45.907Z,14.80
2018-07-09T02:52:18.956Z,14.60
2018-07-09T02:52:52.224Z,14.70
2018-07-09T02:53:25.275Z,14.70
2018-07-09T02:53:58.336Z,14.80
2018-07-09T02:54:31.438Z,14.70
2018-07-09T02:55:04.936Z,14.70
2018-07-09T02:55:37.964Z,14.70
2018-07-09T02:56:11.037Z,14.80
2018-07-09T02:56:44.080Z,14.60
2018-07-09T02:57:17.124Z,14.70
2018-07-09T02:57:50.160Z,14.80
2018-07-09T02:58:23.214Z,14.80
2018-07-09T02:58:56.264Z,14.70
2018-07-09T02:59:29.331Z,14.70
2018-07-09T03:00:02.396Z,14.80
2018-07-09T03:00:35.410Z,14.80
2018-07-09T03:01:08.592Z,14.90
2018-07-09T03:01:41.520Z,14.80
2018-07-09T03:02:14.541Z,14.80
2018-07-09T03:02:47.627Z,14.90
2018-07-09T03:03:20.684Z,14.80
2018-07-09T03:03:53.695Z,14.80
2018-07-09T03:04:26.722Z,14.80
2018-07-09T03:04:59.750Z,14.80
2018-07-09T03:05:32.831Z,14.90
2018-07-09T03:06:05.856Z,14.70
2018-07-09T03:06:38.878Z,14.80
2018-07-09T03:07:11.925Z,14.90
2018-07-09T03:07:44.942Z,14.80
2018-07-09T03:08:17.985Z,14.90
2018-07-09T03:08:51.135Z,15.00
2018-07-09T03:09:24.154Z,15.00
2018-07-09T03:09:57.188Z,15.10
2018-07-09T03:10:30.190Z,15.10
2018-07-09T03:11:03.360Z,15.20
2018-07-09T03:11:36.522Z,15.20
2018-07-09T03:12:09.528Z,15.10
2018-07-09T03:12:42.554Z,15.10
2018-07-09T03:13:15.626Z,15.20
2018-07-09T03:13:48.845Z,15.20
2018-07-09T03:14:22.232Z,15.20
2018-07-09T03:14:55.228Z,15.20
2018-07-09T03:15:28.258Z,15.20
2018-07-09T03:16:01.395Z,15.30
2018-07-09T03:16:34.604Z,15.30
2018-07-09T03:17:07.615Z,15.30
2018-07-09T03:17:40.628Z,15.30
2018-07-09T03:18:13.652Z,15.30
2018-07-09T03:18:46.690Z,15.20
2018-07-09T03:19:19.717Z,15.20
2018-07-09T03:19:52.740Z,15.20
2018-07-09T03:20:25.752Z,15.10
2018-07-09T03:20:58.783Z,15.10
2018-07-09T03:21:31.836Z,15.20
2018-07-09T03:22:05.092Z,15.10
2018-07-09T03:22:38.128Z,15.20
2018-07-09T03:23:11.144Z,15.20
2018-07-09T03:23:44.169Z,15.10
2018-07-09T03:24:17.262Z,15.10
2018-07-09T03:24:50.278Z,15.10
2018-07-09T03:25:23.316Z,15.10
2018-07-09T03:25:56.382Z,15.00
2018-07-09T03:26:29.406Z,15.10
2018-07-09T03:27:02.422Z,15.10
2018-07-09T03:27:35.496Z,15.10
2018-07-09T03:28:08.588Z,15.10
2018-07-09T03:28:41.612Z,15.00
2018-07-09T03:29:14.592Z,15.00
2018-07-09T03:29:47.944Z,15.00
2018-07-09T03:30:20.957Z,15.00
2018-07-09T03:30:54.030Z,15.10
2018-07-09T03:31:27.084Z,15.10
2018-07-09T03:32:00.083Z,15.10
2018-07-09T03:32:33.112Z,15.00
2018-07-09T03:33:06.202Z,15.10
2018-07-09T03:33:39.324Z,15.00
2018-07-09T03:34:12.336Z,15.00
2018-07-09T03:34:45.506Z,15.10
2018-07-09T03:35:18.557Z,15.20
2018-07-09T03:35:51.622Z,15.10
2018-07-09T03:36:24.695Z,15.10
2018-07-09T03:36:57.740Z,15.10
2018-07-09T03:37:30.829Z,15.10
2018-07-09T03:38:03.880Z,15.10
2018-07-09T03:38:37.028Z,15.20
2018-07-09T03:39:10.054Z,15.20
2018-07-09T03:39:43.115Z,15.10
2018-07-09T03:40:16.170Z,15.10
2018-07-09T03:40:49.228Z,15.20
2018-07-09T03:41:22.272Z,15.10
2018-07-09T03:41:55.297Z,15.10
2018-07-09T03:42:28.356Z,15.20
2018-07-09T03:43:01.394Z,15.10
2018-07-09T03:43:34.416Z,15.20
2018-07-09T03:44:07.462Z,15.20
2018-07-09T03:44:40.488Z,15.30
2018-07-09T03:45:13.573Z,15.30
2018-07-09T03:45:46.582Z,15.20
2018-07-09T03:46:19.635Z,15.30
2018-07-09T03:46:52.715Z,15.20
2018-07-09T03:47:25.766Z,15.30
2018-07-09T03:47:58.821Z,15.30
2018-07-09T03:48:31.865Z,15.40
2018-07-09T03:49:05.201Z,15.40
2018-07-09T03:49:38.211Z,15.40
2018-07-09T03:50:11.265Z,15.40
2018-07-09T03:50:44.297Z,15.50
2018-07-09T03:51:17.336Z,15.50
2018-07-09T03:51:50.469Z,15.50
2018-07-09T03:52:23.481Z,15.50
2018-07-09T03:52:56.491Z,15.70
2018-07-09T03:53:29.561Z,15.60
2018-07-09T03:54:02.624Z,15.60
2018-07-09T03:54:35.694Z,15.60
2018-07-09T03:55:08.776Z,15.60
2018-07-09T03:55:41.808Z,15.70
2018-07-09T03:56:14.859Z,15.70
2018-07-09T03:56:47.851Z,15.70
2018-07-09T03:57:21.011Z,15.80
2018-07-09T03:57:54.093Z,15.80
2018-07-09T03:58:27.125Z,15.80
2018-07-09T03:59:00.117Z,15.80
2018-07-09T03:59:33.541Z,15.70
2018-07-09T04:00:06.591Z,16.00
2018-07-09T04:00:39.679Z,15.80
2018-07-09T04:01:12.696Z,15.80
2018-07-09T04:01:45.717Z,15.80
2018-07-09T04:02:18.827Z,15.90
2018-07-09T04:02:51.817Z,15.90
2018-07-09T04:03:24.847Z,15.90
2018-07-09T04:03:57.885Z,15.90
2018-07-09T04:04:31.004Z,15.90
2018-07-09T04:05:04.079Z,16.00
2018-07-09T04:05:37.112Z,16.00
2018-07-09T04:06:10.181Z,15.80
2018-07-09T04:06:43.213Z,15.90
2018-07-09T04:07:16.235Z,15.90
2018-07-09T04:07:49.259Z,16.00
2018-07-09T04:08:22.291Z,15.90
2018-07-09T04:08:55.333Z,15.90
2018-07-09T04:09:28.413Z,15.90
2018-07-09T04:10:01.437Z,16.00
2018-07-09T04:10:34.459Z,15.90
2018-07-09T04:11:07.485Z,16.00
2018-07-09T04:11:40.523Z,15.90
2018-07-09T04:12:13.541Z,16.00
2018-07-09T04:12:46.581Z,16.00
2018-07-09T04:13:19.607Z,16.00
2018-07-09T04:13:52.675Z,16.00
2018-07-09T04:14:25.767Z,15.90
2018-07-09T04:14:58.787Z,15.90
2018-07-09T04:15:31.819Z,16.00
2018-07-09T04:16:04.899Z,15.90
2018-07-09T04:16:37.917Z,16.00
2018-07-09T04:17:10.933Z,16.00
2018-07-09T04:17:43.974Z,16.00
2018-07-09T04:18:20.973Z,15.90
2018-07-09T04:18:53.987Z,15.90
2018-07-09T04:20:29.286Z,16.00
2018-07-09T04:21:02.344Z,15.90
2018-07-09T04:21:35.296Z,16.00
2018-07-09T04:22:08.361Z,16.00
2018-07-09T04:22:41.388Z,16.00
2018-07-09T04:23:14.411Z,16.20
2018-07-09T04:23:47.487Z,16.10
2018-07-09T04:24:20.535Z,16.10
2018-07-09T04:24:53.533Z,16.10
2018-07-09T04:25:26.557Z,16.20
2018-07-09T04:25:59.541Z,16.20
2018-07-09T04:26:32.592Z,16.10
2018-07-09T04:27:06.039Z,16.20
2018-07-09T04:27:39.080Z,16.20
2018-07-09T04:28:12.123Z,16.20
2018-07-09T04:28:45.144Z,16.30
2018-07-09T04:29:18.173Z,16.40
2018-07-09T04:29:51.197Z,16.30
2018-07-09T04:30:24.245Z,16.30
2018-07-09T04:30:57.283Z,16.30
2018-07-09T04:31:30.954Z,16.40
2018-07-09T04:32:04.028Z,16.30
2018-07-09T04:32:37.067Z,16.40
2018-07-09T04:33:10.107Z,16.50
2018-07-09T04:33:43.093Z,16.50
2018-07-09T04:34:16.149Z,16.60
2018-07-09T04:34:49.151Z,16.50
2018-07-09T04:35:23.003Z,16.60
2018-07-09T04:35:56.043Z,16.50
2018-07-09T04:36:29.142Z,16.60
2018-07-09T04:37:02.205Z,16.70
2018-07-09T04:37:35.243Z,16.70
2018-07-09T04:38:08.285Z,16.70
2018-07-09T04:38:41.319Z,16.70
2018-07-09T04:39:14.779Z,16.70
2018-07-09T04:39:47.836Z,16.80
2018-07-09T04:40:21.549Z,16.60
2018-07-09T04:40:54.711Z,16.70
2018-07-09T04:41:28.165Z,16.70
2018-07-09T04:42:01.193Z,16.70
2018-07-09T04:42:34.259Z,16.60
2018-07-09T04:43:07.325Z,16.70
2018-07-09T04:43:40.359Z,16.70
2018-07-09T04:44:13.365Z,16.70
2018-07-09T04:44:46.379Z,16.70
2018-07-09T04:45:19.392Z,16.70
2018-07-09T04:45:52.449Z,16.70
2018-07-09T04:46:25.482Z,16.80
2018-07-09T04:46:58.491Z,16.70
2018-07-09T04:47:31.545Z,16.80
2018-07-09T04:48:04.737Z,16.80
2018-07-09T04:48:37.744Z,16.90
2018-07-09T04:49:10.782Z,16.90
2018-07-09T04:49:43.792Z,17.00
2018-07-09T04:50:16.857Z,17.00
2018-07-09T04:50:49.854Z,17.00
2018-07-09T04:51:22.848Z,17.10
2018-07-09T04:51:55.859Z,17.10
2018-07-09T04:52:28.890Z,17.20
2018-07-09T04:53:02.088Z,17.30
2018-07-09T04:53:35.228Z,17.40
2018-07-09T04:54:08.189Z,17.20
2018-07-09T04:54:41.227Z,17.30
2018-07-09T04:55:14.266Z,17.20
2018-07-09T04:55:47.291Z,17.20
2018-07-09T04:56:20.345Z,17.30
2018-07-09T04:56:54.041Z,17.20
2018-07-09T04:57:27.087Z,17.40
2018-07-09T04:58:00.118Z,17.40
2018-07-09T04:58:33.125Z,17.20
2018-07-09T04:59:06.129Z,17.30
2018-07-09T04:59:39.122Z,17.30
2018-07-09T05:00:12.170Z,17.40
2018-07-09T05:00:45.196Z,17.50
2018-07-09T05:01:18.317Z,17.40
2018-07-09T05:01:51.340Z,17.40
2018-07-09T05:02:24.349Z,17.40
2018-07-09T05:02:57.353Z,17.30
2018-07-09T05:03:30.423Z,17.30
2018-07-09T05:04:03.524Z,17.40
2018-07-09T05:04:36.623Z,17.40
2018-07-09T05:05:09.632Z,17.40
2018-07-09T05:05:42.738Z,17.40
2018-07-09T05:06:15.729Z,17.40
2018-07-09T05:06:48.782Z,17.40
2018-07-09T05:07:21.821Z,17.40
2018-07-09T05:07:54.894Z,17.40
2018-07-09T05:08:27.948Z,17.40
2018-07-09T05:09:01.000Z,17.30
2018-07-09T05:09:34.030Z,17.50
2018-07-09T05:10:07.426Z,17.50
2018-07-09T05:10:40.467Z,17.60
2018-07-09T05:11:13.598Z,17.60
2018-07-09T05:11:46.613Z,17.60
2018-07-09T05:12:19.633Z,17.60
2018-07-09T05:12:53.061Z,17.70
2018-07-09T05:13:26.051Z,17.60
2018-07-09T05:13:59.021Z,17.60
2018-07-09T05:14:32.057Z,17.70
2018-07-09T05:15:05.151Z,17.70
2018-07-09T05:15:38.207Z,17.80
2018-07-09T05:16:11.265Z,17.70
2018-07-09T05:16:44.310Z,17.80
2018-07-09T05:17:17.387Z,17.90
2018-07-09T05:17:50.560Z,18.00
2018-07-09T05:18:23.622Z,18.00
2018-07-09T05:18:56.801Z,17.90
2018-07-09T05:19:29.832Z,17.90
2018-07-09T05:20:02.913Z,17.90
2018-07-09T05:20:35.991Z,17.90
2018-07-09T05:21:08.995Z,17.90
2018-07-09T05:21:41.999Z,18.10
2018-07-09T05:22:14.972Z,18.20
2018-07-09T05:22:48.012Z,18.10
2018-07-09T05:23:21.099Z,18.20
2018-07-09T05:23:54.103Z,18.20
2018-07-09T05:24:27.105Z,18.20
2018-07-09T05:25:00.110Z,18.30
2018-07-09T05:25:33.124Z,18.30
2018-07-09T05:26:06.175Z,18.30
2018-07-09T05:26:39.205Z,18.20
2018-07-09T05:27:12.236Z,18.10
2018-07-09T05:27:45.283Z,18.10
2018-07-09T05:28:18.318Z,18.10
2018-07-09T05:28:51.330Z,18.20
2018-07-09T05:29:24.407Z,18.20
2018-07-09T05:29:57.514Z,18.30
2018-07-09T05:30:30.529Z,18.30
2018-07-09T05:31:03.557Z,18.20
2018-07-09T05:31:36.576Z,18.30
2018-07-09T05:32:09.633Z,18.20
2018-07-09T05:32:42.693Z,18.20
2018-07-09T05:33:15.818Z,18.20
2018-07-09T05:33:48.868Z,18.20
2018-07-09T05:34:21.915Z,18.30
2018-07-09T05:34:55.468Z,18.40
2018-07-09T05:35:28.515Z,18.40
2018-07-09T05:36:01.526Z,18.50
2018-07-09T05:36:34.539Z,18.40
2018-07-09T05:37:07.630Z,18.50
2018-07-09T05:37:40.611Z,18.50
2018-07-09T05:38:13.675Z,18.40
2018-07-09T05:38:46.807Z,18.50
2018-07-09T05:39:19.927Z,18.50
2018-07-09T05:39:53.062Z,18.50
2018-07-09T05:40:28.090Z,18.50
2018-07-09T05:41:01.230Z,18.60
2018-07-09T05:41:34.347Z,18.70
2018-07-09T05:42:07.441Z,18.80
2018-07-09T05:42:40.539Z,19.00
2018-07-09T05:43:13.656Z,19.10
2018-07-09T05:43:46.728Z,19.20
2018-07-09T05:44:19.851Z,19.30
2018-07-09T05:44:52.965Z,19.30
2018-07-09T05:45:26.053Z,19.20
2018-07-09T05:45:59.181Z,19.40
2018-07-09T05:46:32.301Z,19.50
2018-07-09T05:47:05.576Z,19.40
2018-07-09T05:47:38.781Z,19.50
2018-07-09T05:48:11.906Z,19.60
2018-07-09T05:48:45.042Z,19.50
2018-07-09T05:49:18.167Z,19.50
2018-07-09T05:49:51.847Z,19.30
2018-07-09T05:50:24.911Z,19.50
2018-07-09T05:50:57.956Z,19.40
2018-07-09T05:51:30.995Z,19.50
2018-07-09T05:52:04.163Z,19.60
2018-07-09T05:52:37.203Z,19.70
2018-07-09T05:53:10.223Z,19.70
2018-07-09T05:53:43.253Z,20.00
2018-07-09T05:54:16.511Z,20.00
2018-07-09T05:54:49.562Z,20.00
2018-07-09T05:55:22.601Z,20.10
2018-07-09T05:55:55.619Z,20.30
2018-07-09T05:56:28.668Z,20.20
2018-07-09T05:57:02.067Z,20.20
2018-07-09T05:57:35.088Z,20.40
2018-07-09T05:58:08.143Z,20.60
2018-07-09T05:58:41.186Z,20.60
2018-07-09T05:59:14.245Z,20.80
2018-07-09T05:59:47.227Z,20.90
2018-07-09T06:00:20.335Z,20.90
2018-07-09T06:00:53.383Z,20.70
2018-07-09T06:01:26.461Z,20.70
2018-07-09T06:01:59.545Z,20.60
2018-07-09T06:02:32.529Z,20.50
2018-07-09T06:03:05.673Z,20.40
2018-07-09T06:03:38.715Z,20.20
2018-07-09T06:04:11.773Z,20.30
2018-07-09T06:04:44.823Z,20.30
2018-07-09T06:05:17.871Z,20.20
2018-07-09T06:05:50.911Z,20.20
2018-07-09T06:06:24.013Z,20.10
2018-07-09T06:06:57.074Z,20.40
2018-07-09T06:07:30.091Z,20.40
2018-07-09T06:08:03.131Z,20.70
2018-07-09T06:08:36.189Z,20.70
2018-07-09T06:09:09.902Z,20.50
2018-07-09T06:09:42.935Z,20.40
2018-07-09T06:10:16.016Z,20.10
2018-07-09T06:10:49.061Z,20.20
2018-07-09T06:11:22.204Z,20.20
2018-07-09T06:11:55.205Z,20.20
2018-07-09T06:12:28.232Z,20.30
2018-07-09T06:13:01.321Z,20.10
2018-07-09T06:13:34.472Z,20.30
2018-07-09T06:14:07.522Z,20.40
2018-07-09T06:14:40.554Z,20.60
2018-07-09T06:15:13.659Z,20.70
2018-07-09T06:15:46.707Z,20.90
2018-07-09T06:16:19.985Z,20.90
2018-07-09T06:16:52.997Z,21.10
2018-07-09T06:17:26.019Z,21.10
2018-07-09T06:17:59.123Z,21.10
2018-07-09T06:18:32.186Z,20.90
2018-07-09T06:19:05.283Z,20.80
2018-07-09T06:19:38.489Z,20.80
2018-07-09T06:20:11.563Z,20.90
2018-07-09T06:20:44.635Z,21.20
2018-07-09T06:21:17.724Z,21.30
2018-07-09T06:21:50.794Z,21.60
2018-07-09T06:22:23.888Z,21.60
2018-07-09T06:22:56.935Z,21.70
2018-07-09T06:23:30.004Z,21.80
2018-07-09T06:24:03.119Z,22.00
2018-07-09T06:24:36.200Z,21.70
2018-07-09T06:25:09.289Z,21.80
2018-07-09T06:25:42.313Z,21.70
2018-07-09T06:26:15.379Z,21.50
2018-07-09T06:26:48.397Z,21.30
2018-07-09T06:27:21.476Z,21.10
2018-07-09T06:27:54.544Z,21.20
2018-07-09T06:28:27.622Z,21.30
2018-07-09T06:29:00.645Z,21.10
2018-07-09T06:29:33.707Z,20.80
2018-07-09T06:30:06.747Z,21.10
2018-07-09T06:30:39.817Z,21.10
2018-07-09T06:31:12.901Z,21.50
2018-07-09T06:31:45.968Z,21.40
2018-07-09T06:32:19.020Z,21.20
2018-07-09T06:32:52.047Z,21.10
2018-07-09T06:33:25.075Z,21.10
2018-07-09T06:33:58.127Z,21.20
2018-07-09T06:34:31.158Z,21.30
2018-07-09T06:35:04.273Z,21.50
2018-07-09T06:35:37.334Z,21.70
2018-07-09T06:36:10.399Z,21.70
2018-07-09T06:36:43.518Z,21.90
2018-07-09T06:37:16.544Z,22.00
2018-07-09T06:37:49.709Z,22.10
2018-07-09T06:38:22.804Z,22.30
2018-07-09T06:38:55.863Z,22.30
2018-07-09T06:39:28.939Z,22.30
2018-07-09T06:40:02.101Z,22.10
2018-07-09T06:40:35.233Z,22.60
2018-07-09T06:41:08.282Z,23.50
2018-07-09T06:41:41.315Z,23.90
2018-07-09T06:42:14.376Z,24.60
2018-07-09T06:42:47.391Z,24.90
2018-07-09T06:43:20.413Z,24.90
2018-07-09T06:43:53.421Z,25.00
2018-07-09T06:44:26.433Z,25.20
2018-07-09T06:44:59.536Z,25.40
2018-07-09T06:45:32.560Z,25.40
2018-07-09T06:46:05.659Z,24.70
2018-07-09T06:46:38.774Z,24.00
2018-07-09T06:48:41.364Z,23.70
2018-07-09T06:49:14.460Z,23.00
2018-07-09T06:49:47.470Z,23.30
2018-07-09T06:50:20.564Z,23.60
2018-07-09T06:52:23.218Z,23.80
2018-07-09T06:52:56.221Z,24.10
2018-07-09T06:53:29.261Z,24.00
2018-07-09T06:54:02.321Z,23.40
2018-07-09T06:54:35.351Z,23.40
2018-07-09T06:55:08.440Z,23.10
2018-07-09T06:55:41.484Z,23.10
2018-07-09T06:56:14.539Z,23.30
2018-07-09T06:56:47.532Z,23.00
2018-07-09T06:57:20.588Z,23.40
2018-07-09T06:57:53.631Z,23.20
2018-07-09T06:58:26.642Z,23.10
2018-07-09T06:58:59.663Z,22.90
2018-07-09T06:59:32.726Z,23.10
2018-07-09T07:00:05.897Z,23.20
2018-07-09T07:00:38.938Z,23.10
2018-07-09T07:01:11.990Z,23.30
2018-07-09T07:01:45.062Z,23.20
2018-07-09T07:02:18.150Z,23.20
2018-07-09T07:02:51.148Z,23.00
2018-07-09T07:03:24.220Z,23.00
2018-07-09T07:03:57.232Z,23.20
2018-07-09T07:04:30.274Z,23.20
2018-07-09T07:05:03.377Z,23.30
2018-07-09T07:05:36.427Z,23.20
2018-07-09T07:06:09.489Z,23.20
2018-07-09T07:06:42.621Z,23.30
2018-07-09T07:07:15.631Z,23.30
2018-07-09T07:07:48.691Z,23.10
2018-07-09T07:08:21.731Z,23.20
2018-07-09T07:08:54.819Z,23.10
2018-07-09T07:09:27.802Z,23.10
2018-07-09T07:10:00.925Z,23.00
2018-07-09T07:10:34.007Z,22.90
2018-07-09T07:11:07.388Z,23.00
2018-07-09T07:11:40.663Z,22.80
2018-07-09T07:12:13.702Z,23.00
2018-07-09T07:12:46.764Z,22.60